sensor_id;sensor_type;location;lat;lon;timestamp;pressure;altitude;pressure_sealevel;temperature;humidity
3748;BME280;1889;50.058;8.688;2023-04-07T00:00:58;100257.53;;;12.29;64.34
3748;BME280;1889;50.058;8.688;2023-04-07T00:03:27;100264.13;;;12.29;64.42
3748;BME280;1889;50.058;8.688;2023-04-07T00:05:57;100260.20;;;12.27;64.74
3748;BME280;1889;50.058;8.688;2023-04-07T00:08:26;100255.96;;;12.20;64.83
3748;BME280;1889;50.058;8.688;2023-04-07T00:10:56;100257.50;;;12.30;64.39
3748;BME280;1889;50.058;8.688;2023-04-07T00:13:25;100257.03;;;12.11;65.16
3748;BME280;1889;50.058;8.688;2023-04-07T00:15:55;100253.30;;;12.21;64.73
3748;BME280;1889;50.058;8.688;2023-04-07T00:18:24;100257.03;;;12.32;64.43
3748;BME280;1889;50.058;8.688;2023-04-07T00:20:53;100250.78;;;12.35;64.36
3748;BME280;1889;50.058;8.688;2023-04-07T00:23:23;100256.69;;;12.27;64.73
3748;BME280;1889;50.058;8.688;2023-04-07T00:25:52;100252.96;;;11.97;66.26
3748;BME280;1889;50.058;8.688;2023-04-07T00:28:22;100248.59;;;11.96;66.73
3748;BME280;1889;50.058;8.688;2023-04-07T00:30:51;100243.55;;;11.61;68.00
3748;BME280;1889;50.058;8.688;2023-04-07T00:33:20;100239.52;;;11.88;66.74
3748;BME280;1889;50.058;8.688;2023-04-07T00:35:50;100239.02;;;12.11;65.80
3748;BME280;1889;50.058;8.688;2023-04-07T00:38:21;100232.73;;;11.97;66.55
3748;BME280;1889;50.058;8.688;2023-04-07T00:40:57;100232.82;;;11.70;67.73
3748;BME280;1889;50.058;8.688;2023-04-07T00:43:27;100226.61;;;11.95;66.65
3748;BME280;1889;50.058;8.688;2023-04-07T00:45:56;100227.11;;;12.12;65.89
3748;BME280;1889;50.058;8.688;2023-04-07T00:48:26;100223.72;;;12.07;66.25
3748;BME280;1889;50.058;8.688;2023-04-07T00:50:55;100217.38;;;11.95;66.67
3748;BME280;1889;50.058;8.688;2023-04-07T00:53:24;100214.89;;;11.89;66.84
3748;BME280;1889;50.058;8.688;2023-04-07T00:55:54;100208.71;;;11.90;66.69
3748;BME280;1889;50.058;8.688;2023-04-07T00:58:23;100201.78;;;11.84;67.25
3748;BME280;1889;50.058;8.688;2023-04-07T01:03:56;100187.17;;;12.08;65.91
3748;BME280;1889;50.058;8.688;2023-04-07T01:06:27;100187.06;;;12.14;65.76
3748;BME280;1889;50.058;8.688;2023-04-07T01:09:44;100188.42;;;11.92;66.19
3748;BME280;1889;50.058;8.688;2023-04-07T01:11:43;100187.67;;;11.87;66.77
3748;BME280;1889;50.058;8.688;2023-04-07T01:14:14;100183.79;;;12.03;66.05
3748;BME280;1889;50.058;8.688;2023-04-07T01:16:50;100179.36;;;12.05;65.95
3748;BME280;1889;50.058;8.688;2023-04-07T01:19:39;100180.18;;;11.88;66.56
3748;BME280;1889;50.058;8.688;2023-04-07T01:22:20;100179.56;;;11.96;66.31
3748;BME280;1889;50.058;8.688;2023-04-07T01:27:58;100172.60;;;11.92;66.43
3748;BME280;1889;50.058;8.688;2023-04-07T01:30:39;100171.77;;;12.09;65.74
3748;BME280;1889;50.058;8.688;2023-04-07T01:33:04;100161.91;;;12.00;66.21
3748;BME280;1889;50.058;8.688;2023-04-07T01:35:36;100161.81;;;12.03;66.07
3748;BME280;1889;50.058;8.688;2023-04-07T01:38:07;100165.38;;;12.19;65.66
3748;BME280;1889;50.058;8.688;2023-04-07T01:40:38;100165.30;;;12.24;65.54
3748;BME280;1889;50.058;8.688;2023-04-07T01:43:08;100162.50;;;12.30;65.42
3748;BME280;1889;50.058;8.688;2023-04-07T01:45:39;100161.20;;;12.29;65.22
3748;BME280;1889;50.058;8.688;2023-04-07T01:48:09;100155.33;;;12.35;65.18
3748;BME280;1889;50.058;8.688;2023-04-07T01:50:39;100155.80;;;12.33;65.17
3748;BME280;1889;50.058;8.688;2023-04-07T01:53:10;100156.05;;;12.24;65.31
3748;BME280;1889;50.058;8.688;2023-04-07T01:55:40;100148.63;;;12.40;65.21
3748;BME280;1889;50.058;8.688;2023-04-07T01:58:10;100151.84;;;12.33;65.15
3748;BME280;1889;50.058;8.688;2023-04-07T02:00:40;100145.83;;;12.28;65.21
3748;BME280;1889;50.058;8.688;2023-04-07T02:03:17;100146.19;;;12.32;65.12
3748;BME280;1889;50.058;8.688;2023-04-07T02:05:44;100146.44;;;12.21;65.26
3748;BME280;1889;50.058;8.688;2023-04-07T02:08:15;100145.53;;;12.22;65.50
3748;BME280;1889;50.058;8.688;2023-04-07T02:10:47;100140.03;;;11.95;66.27
3748;BME280;1889;50.058;8.688;2023-04-07T02:13:19;100135.11;;;11.99;66.29
3748;BME280;1889;50.058;8.688;2023-04-07T02:15:49;100141.80;;;12.13;65.99
3748;BME280;1889;50.058;8.688;2023-04-07T02:18:20;100142.66;;;11.95;66.71
3748;BME280;1889;50.058;8.688;2023-04-07T02:20:51;100136.91;;;11.97;66.52
3748;BME280;1889;50.058;8.688;2023-04-07T02:23:21;100134.90;;;12.08;66.19
3748;BME280;1889;50.058;8.688;2023-04-07T02:25:50;100134.59;;;12.20;65.90
3748;BME280;1889;50.058;8.688;2023-04-07T02:28:20;100131.56;;;12.17;65.75
3748;BME280;1889;50.058;8.688;2023-04-07T02:30:49;100136.36;;;12.19;66.02
3748;BME280;1889;50.058;8.688;2023-04-07T02:33:18;100129.03;;;12.32;66.00
3748;BME280;1889;50.058;8.688;2023-04-07T02:35:48;100126.97;;;12.26;66.05
3748;BME280;1889;50.058;8.688;2023-04-07T02:38:17;100123.78;;;12.31;65.89
3748;BME280;1889;50.058;8.688;2023-04-07T02:40:46;100121.32;;;12.05;66.57
3748;BME280;1889;50.058;8.688;2023-04-07T02:43:16;100126.09;;;12.25;66.01
3748;BME280;1889;50.058;8.688;2023-04-07T02:45:46;100124.08;;;12.36;65.69
3748;BME280;1889;50.058;8.688;2023-04-07T02:48:15;100122.47;;;12.31;65.79
3748;BME280;1889;50.058;8.688;2023-04-07T02:50:45;100124.33;;;12.43;65.47
3748;BME280;1889;50.058;8.688;2023-04-07T02:53:14;100127.23;;;12.33;65.71
3748;BME280;1889;50.058;8.688;2023-04-07T02:55:44;100122.08;;;12.28;65.81
3748;BME280;1889;50.058;8.688;2023-04-07T02:58:13;100128.35;;;12.24;66.00
3748;BME280;1889;50.058;8.688;2023-04-07T03:00:43;100118.27;;;12.04;66.33
3748;BME280;1889;50.058;8.688;2023-04-07T03:03:12;100114.88;;;11.99;66.66
3748;BME280;1889;50.058;8.688;2023-04-07T03:05:41;100121.65;;;12.09;66.27
3748;BME280;1889;50.058;8.688;2023-04-07T03:08:11;100113.00;;;12.22;66.13
3748;BME280;1889;50.058;8.688;2023-04-07T03:10:40;100113.86;;;11.85;66.99
3748;BME280;1889;50.058;8.688;2023-04-07T03:13:09;100112.56;;;12.03;66.41
3748;BME280;1889;50.058;8.688;2023-04-07T03:15:41;100114.73;;;11.86;67.02
3748;BME280;1889;50.058;8.688;2023-04-07T03:18:10;100110.09;;;11.97;66.82
3748;BME280;1889;50.058;8.688;2023-04-07T03:20:39;100110.89;;;11.81;67.39
3748;BME280;1889;50.058;8.688;2023-04-07T03:23:09;100105.83;;;11.92;67.21
3748;BME280;1889;50.058;8.688;2023-04-07T03:25:39;100107.39;;;11.81;67.54
3748;BME280;1889;50.058;8.688;2023-04-07T03:28:08;100109.33;;;11.71;68.02
3748;BME280;1889;50.058;8.688;2023-04-07T03:30:38;100104.90;;;11.75;68.16
3748;BME280;1889;50.058;8.688;2023-04-07T03:33:07;100103.05;;;11.78;67.97
3748;BME280;1889;50.058;8.688;2023-04-07T03:35:37;100103.22;;;11.90;67.81
3748;BME280;1889;50.058;8.688;2023-04-07T03:38:06;100104.56;;;12.08;67.17
3748;BME280;1889;50.058;8.688;2023-04-07T03:40:35;100101.27;;;11.98;67.37
3748;BME280;1889;50.058;8.688;2023-04-07T03:43:04;100098.96;;;12.02;67.28
3748;BME280;1889;50.058;8.688;2023-04-07T03:45:35;100102.28;;;12.10;67.03
3748;BME280;1889;50.058;8.688;2023-04-07T03:48:05;100097.01;;;12.28;66.76
3748;BME280;1889;50.058;8.688;2023-04-07T03:50:41;100098.16;;;12.34;66.50
3748;BME280;1889;50.058;8.688;2023-04-07T03:53:07;100096.59;;;12.27;66.57
3748;BME280;1889;50.058;8.688;2023-04-07T03:55:37;100101.61;;;12.20;66.60
3748;BME280;1889;50.058;8.688;2023-04-07T03:58:06;100096.14;;;12.28;66.60
3748;BME280;1889;50.058;8.688;2023-04-07T04:00:35;100093.82;;;12.15;66.84
3748;BME280;1889;50.058;8.688;2023-04-07T04:03:05;100097.01;;;12.28;66.38
3748;BME280;1889;50.058;8.688;2023-04-07T04:05:34;100092.95;;;12.15;66.51
3748;BME280;1889;50.058;8.688;2023-04-07T04:08:03;100099.44;;;12.00;67.19
3748;BME280;1889;50.058;8.688;2023-04-07T04:10:33;100091.78;;;11.91;67.62
3748;BME280;1889;50.058;8.688;2023-04-07T04:13:03;100093.14;;;12.07;67.16
3748;BME280;1889;50.058;8.688;2023-04-07T04:15:34;100097.13;;;12.06;67.21
3748;BME280;1889;50.058;8.688;2023-04-07T04:18:03;100094.78;;;12.11;67.10
3748;BME280;1889;50.058;8.688;2023-04-07T04:20:32;100098.13;;;12.18;66.87
3748;BME280;1889;50.058;8.688;2023-04-07T04:23:02;100092.34;;;12.21;66.87
3748;BME280;1889;50.058;8.688;2023-04-07T04:25:31;100096.94;;;12.31;66.42
3748;BME280;1889;50.058;8.688;2023-04-07T04:28:01;100092.66;;;12.26;66.46
3748;BME280;1889;50.058;8.688;2023-04-07T04:30:30;100096.14;;;12.28;66.41
3748;BME280;1889;50.058;8.688;2023-04-07T04:32:59;100099.52;;;12.33;66.14
3748;BME280;1889;50.058;8.688;2023-04-07T04:35:30;100099.55;;;12.15;66.84
3748;BME280;1889;50.058;8.688;2023-04-07T04:37:59;100093.86;;;12.14;66.82
3748;BME280;1889;50.058;8.688;2023-04-07T04:40:28;100090.66;;;12.35;66.09
3748;BME280;1889;50.058;8.688;2023-04-07T04:42:58;100094.79;;;12.29;66.29
3748;BME280;1889;50.058;8.688;2023-04-07T04:45:27;100097.04;;;12.27;66.47
3748;BME280;1889;50.058;8.688;2023-04-07T04:47:56;100096.78;;;12.19;66.73
3748;BME280;1889;50.058;8.688;2023-04-07T04:50:26;100094.16;;;12.00;67.32
3748;BME280;1889;50.058;8.688;2023-04-07T04:52:55;100097.66;;;12.20;66.83
3748;BME280;1889;50.058;8.688;2023-04-07T04:55:24;100100.23;;;12.23;66.75
3748;BME280;1889;50.058;8.688;2023-04-07T04:57:54;100098.74;;;12.11;66.85
3748;BME280;1889;50.058;8.688;2023-04-07T05:00:23;100100.73;;;12.02;67.28
3748;BME280;1889;50.058;8.688;2023-04-07T05:02:53;100099.95;;;11.98;67.52
3748;BME280;1889;50.058;8.688;2023-04-07T05:05:23;100104.12;;;12.24;66.90
3748;BME280;1889;50.058;8.688;2023-04-07T05:07:52;100103.09;;;12.14;66.98
3748;BME280;1889;50.058;8.688;2023-04-07T05:10:21;100102.93;;;12.20;66.82
3748;BME280;1889;50.058;8.688;2023-04-07T05:12:51;100113.16;;;12.16;66.75
3748;BME280;1889;50.058;8.688;2023-04-07T05:15:20;100106.59;;;12.14;66.66
3748;BME280;1889;50.058;8.688;2023-04-07T05:17:50;100110.55;;;12.14;66.79
3748;BME280;1889;50.058;8.688;2023-04-07T05:20:19;100104.92;;;12.10;67.11
3748;BME280;1889;50.058;8.688;2023-04-07T05:22:48;100108.08;;;12.24;66.88
3748;BME280;1889;50.058;8.688;2023-04-07T05:25:18;100107.05;;;12.14;67.06
3748;BME280;1889;50.058;8.688;2023-04-07T05:27:47;100105.73;;;12.32;66.60
3748;BME280;1889;50.058;8.688;2023-04-07T05:30:16;100109.30;;;12.29;66.53
3748;BME280;1889;50.058;8.688;2023-04-07T05:32:46;100109.78;;;12.27;66.66
3748;BME280;1889;50.058;8.688;2023-04-07T05:35:15;100109.36;;;12.26;66.51
3748;BME280;1889;50.058;8.688;2023-04-07T05:37:44;100107.47;;;12.15;66.93
3748;BME280;1889;50.058;8.688;2023-04-07T05:40:14;100106.66;;;12.29;66.44
3748;BME280;1889;50.058;8.688;2023-04-07T05:42:43;100104.14;;;12.07;66.75
3748;BME280;1889;50.058;8.688;2023-04-07T05:45:13;100103.02;;;11.99;67.29
3748;BME280;1889;50.058;8.688;2023-04-07T05:47:43;100110.01;;;12.18;66.73
3748;BME280;1889;50.058;8.688;2023-04-07T05:50:14;100104.73;;;12.18;66.76
3748;BME280;1889;50.058;8.688;2023-04-07T05:52:43;100104.45;;;11.93;67.58
3748;BME280;1889;50.058;8.688;2023-04-07T05:55:13;100107.06;;;11.95;67.56
3748;BME280;1889;50.058;8.688;2023-04-07T05:57:42;100111.19;;;12.06;67.17
3748;BME280;1889;50.058;8.688;2023-04-07T06:00:12;100109.01;;;11.87;67.78
3748;BME280;1889;50.058;8.688;2023-04-07T06:02:41;100104.13;;;11.89;67.88
3748;BME280;1889;50.058;8.688;2023-04-07T06:05:11;100110.87;;;11.83;68.29
3748;BME280;1889;50.058;8.688;2023-04-07T06:07:40;100103.91;;;11.98;67.87
3748;BME280;1889;50.058;8.688;2023-04-07T06:10:09;100105.32;;;11.94;67.86
3748;BME280;1889;50.058;8.688;2023-04-07T06:12:39;100105.70;;;11.77;68.67
3748;BME280;1889;50.058;8.688;2023-04-07T06:15:08;100109.73;;;11.93;68.23
3748;BME280;1889;50.058;8.688;2023-04-07T06:17:38;100104.08;;;12.08;67.71
3748;BME280;1889;50.058;8.688;2023-04-07T06:20:07;100111.52;;;12.10;67.58
3748;BME280;1889;50.058;8.688;2023-04-07T06:22:37;100107.53;;;11.73;68.84
3748;BME280;1889;50.058;8.688;2023-04-07T06:25:07;100105.02;;;11.88;68.55
3748;BME280;1889;50.058;8.688;2023-04-07T06:27:36;100108.36;;;12.14;67.62
3748;BME280;1889;50.058;8.688;2023-04-07T06:30:06;100115.09;;;12.26;67.10
3748;BME280;1889;50.058;8.688;2023-04-07T06:32:36;100114.48;;;12.16;67.35
3748;BME280;1889;50.058;8.688;2023-04-07T06:35:05;100119.12;;;12.24;67.39
3748;BME280;1889;50.058;8.688;2023-04-07T06:37:35;100111.33;;;12.36;66.67
3748;BME280;1889;50.058;8.688;2023-04-07T06:40:05;100113.97;;;12.36;66.94
3748;BME280;1889;50.058;8.688;2023-04-07T06:42:35;100115.25;;;12.37;66.84
3748;BME280;1889;50.058;8.688;2023-04-07T06:45:04;100118.28;;;12.40;66.64
3748;BME280;1889;50.058;8.688;2023-04-07T06:47:34;100115.83;;;12.32;66.78
3748;BME280;1889;50.058;8.688;2023-04-07T06:50:03;100122.95;;;12.46;66.44
3748;BME280;1889;50.058;8.688;2023-04-07T06:52:33;100122.81;;;12.33;66.73
3748;BME280;1889;50.058;8.688;2023-04-07T06:55:02;100115.50;;;12.09;67.31
3748;BME280;1889;50.058;8.688;2023-04-07T06:57:32;100121.77;;;11.85;68.65
3748;BME280;1889;50.058;8.688;2023-04-07T07:00:01;100115.83;;;12.14;68.04
3748;BME280;1889;50.058;8.688;2023-04-07T07:02:30;100121.34;;;12.23;67.63
3748;BME280;1889;50.058;8.688;2023-04-07T07:05:00;100115.59;;;12.06;68.25
3748;BME280;1889;50.058;8.688;2023-04-07T07:07:31;100118.00;;;11.97;68.81
3748;BME280;1889;50.058;8.688;2023-04-07T07:10:01;100124.34;;;12.08;68.60
3748;BME280;1889;50.058;8.688;2023-04-07T07:12:30;100122.67;;;12.04;68.97
3748;BME280;1889;50.058;8.688;2023-04-07T07:15:00;100126.96;;;11.90;69.51
3748;BME280;1889;50.058;8.688;2023-04-07T07:17:30;100130.86;;;12.29;68.23
3748;BME280;1889;50.058;8.688;2023-04-07T07:19:59;100131.58;;;12.35;68.00
3748;BME280;1889;50.058;8.688;2023-04-07T07:22:28;100128.29;;;12.43;67.57
3748;BME280;1889;50.058;8.688;2023-04-07T07:24:58;100131.09;;;12.55;67.10
3748;BME280;1889;50.058;8.688;2023-04-07T07:27:27;100131.02;;;12.40;67.42
3748;BME280;1889;50.058;8.688;2023-04-07T07:29:57;100136.48;;;12.15;68.36
3748;BME280;1889;50.058;8.688;2023-04-07T07:32:26;100130.95;;;11.89;69.97
3748;BME280;1889;50.058;8.688;2023-04-07T07:34:55;100135.86;;;12.04;69.69
3748;BME280;1889;50.058;8.688;2023-04-07T07:37:25;100140.31;;;12.19;68.69
3748;BME280;1889;50.058;8.688;2023-04-07T07:39:55;100138.46;;;11.86;70.31
3748;BME280;1889;50.058;8.688;2023-04-07T07:42:24;100139.55;;;11.97;70.10
3748;BME280;1889;50.058;8.688;2023-04-07T07:44:54;100139.33;;;12.41;68.94
3748;BME280;1889;50.058;8.688;2023-04-07T07:47:23;100135.89;;;12.39;68.75
3748;BME280;1889;50.058;8.688;2023-04-07T07:49:53;100142.30;;;12.47;68.70
3748;BME280;1889;50.058;8.688;2023-04-07T07:52:22;100143.96;;;12.49;68.63
3748;BME280;1889;50.058;8.688;2023-04-07T07:54:52;100144.09;;;12.45;68.99
3748;BME280;1889;50.058;8.688;2023-04-07T07:57:22;100143.16;;;12.47;68.82
3748;BME280;1889;50.058;8.688;2023-04-07T07:59:51;100138.53;;;12.02;70.67
3748;BME280;1889;50.058;8.688;2023-04-07T08:02:20;100147.97;;;12.12;70.56
3748;BME280;1889;50.058;8.688;2023-04-07T08:04:50;100156.53;;;12.22;70.07
3748;BME280;1889;50.058;8.688;2023-04-07T08:07:19;100152.22;;;12.18;70.25
3748;BME280;1889;50.058;8.688;2023-04-07T08:09:48;100156.95;;;12.23;70.48
3748;BME280;1889;50.058;8.688;2023-04-07T08:12:18;100155.16;;;12.06;71.21
3748;BME280;1889;50.058;8.688;2023-04-07T08:14:47;100154.34;;;12.21;70.90
3748;BME280;1889;50.058;8.688;2023-04-07T08:17:17;100154.14;;;12.11;71.39
3748;BME280;1889;50.058;8.688;2023-04-07T08:19:47;100156.45;;;12.43;70.43
3748;BME280;1889;50.058;8.688;2023-04-07T08:22:16;100157.73;;;12.62;69.23
3748;BME280;1889;50.058;8.688;2023-04-07T08:24:47;100164.05;;;12.56;69.43
3748;BME280;1889;50.058;8.688;2023-04-07T08:27:16;100164.14;;;12.70;68.95
3748;BME280;1889;50.058;8.688;2023-04-07T08:29:50;100165.91;;;12.69;69.06
3748;BME280;1889;50.058;8.688;2023-04-07T08:32:16;100168.42;;;12.74;68.49
3748;BME280;1889;50.058;8.688;2023-04-07T08:34:46;100165.05;;;12.33;69.85
3748;BME280;1889;50.058;8.688;2023-04-07T08:37:15;100163.79;;;12.66;68.98
3748;BME280;1889;50.058;8.688;2023-04-07T08:39:44;100169.02;;;12.85;68.10
3748;BME280;1889;50.058;8.688;2023-04-07T08:42:14;100165.89;;;12.87;67.99
3748;BME280;1889;50.058;8.688;2023-04-07T08:44:46;100163.16;;;12.90;68.21
3748;BME280;1889;50.058;8.688;2023-04-07T08:47:16;100167.66;;;12.70;68.85
3748;BME280;1889;50.058;8.688;2023-04-07T08:49:48;100170.20;;;12.89;68.25
3748;BME280;1889;50.058;8.688;2023-04-07T08:52:21;100172.50;;;13.03;67.69
3748;BME280;1889;50.058;8.688;2023-04-07T08:54:51;100173.51;;;13.15;67.42
3748;BME280;1889;50.058;8.688;2023-04-07T08:57:20;100177.28;;;12.55;69.32
3748;BME280;1889;50.058;8.688;2023-04-07T08:59:50;100172.03;;;12.71;69.56
3748;BME280;1889;50.058;8.688;2023-04-07T09:02:20;100175.22;;;12.66;69.71
3748;BME280;1889;50.058;8.688;2023-04-07T09:04:50;100175.35;;;12.95;69.06
3748;BME280;1889;50.058;8.688;2023-04-07T09:07:19;100174.90;;;13.12;68.52
3748;BME280;1889;50.058;8.688;2023-04-07T09:09:49;100172.84;;;12.89;68.85
3748;BME280;1889;50.058;8.688;2023-04-07T09:12:18;100174.58;;;13.24;67.90
3748;BME280;1889;50.058;8.688;2023-04-07T09:14:48;100174.47;;;13.29;68.18
3748;BME280;1889;50.058;8.688;2023-04-07T09:17:17;100177.50;;;13.30;68.11
3748;BME280;1889;50.058;8.688;2023-04-07T09:19:47;100181.14;;;13.57;66.95
3748;BME280;1889;50.058;8.688;2023-04-07T09:25:20;100183.83;;;13.24;68.26
3748;BME280;1889;50.058;8.688;2023-04-07T09:28:02;100185.80;;;13.32;67.78
3748;BME280;1889;50.058;8.688;2023-04-07T09:30:33;100186.77;;;13.61;67.35
3748;BME280;1889;50.058;8.688;2023-04-07T09:33:02;100188.31;;;13.83;66.53
3748;BME280;1889;50.058;8.688;2023-04-07T09:35:32;100182.84;;;13.74;66.53
3748;BME280;1889;50.058;8.688;2023-04-07T09:38:08;100183.33;;;13.72;66.67
3748;BME280;1889;50.058;8.688;2023-04-07T09:40:37;100182.53;;;13.85;66.37
3748;BME280;1889;50.058;8.688;2023-04-07T09:43:13;100185.86;;;13.91;65.27
3748;BME280;1889;50.058;8.688;2023-04-07T09:45:39;100181.52;;;13.89;65.40
3748;BME280;1889;50.058;8.688;2023-04-07T09:48:20;100184.62;;;13.59;66.22
3748;BME280;1889;50.058;8.688;2023-04-07T09:50:49;100190.20;;;13.48;66.68
3748;BME280;1889;50.058;8.688;2023-04-07T09:53:19;100193.42;;;13.74;65.60
3748;BME280;1889;50.058;8.688;2023-04-07T09:55:50;100194.33;;;13.73;65.24
3748;BME280;1889;50.058;8.688;2023-04-07T09:58:21;100188.17;;;13.72;65.12
3748;BME280;1889;50.058;8.688;2023-04-07T10:00:50;100191.52;;;13.33;66.51
3748;BME280;1889;50.058;8.688;2023-04-07T10:03:20;100194.62;;;13.48;66.27
3748;BME280;1889;50.058;8.688;2023-04-07T10:05:50;100192.33;;;13.66;65.55
3748;BME280;1889;50.058;8.688;2023-04-07T10:08:20;100195.80;;;13.68;65.42
3748;BME280;1889;50.058;8.688;2023-04-07T10:10:49;100192.36;;;13.65;65.67
3748;BME280;1889;50.058;8.688;2023-04-07T10:13:20;100194.03;;;13.69;65.73
3748;BME280;1889;50.058;8.688;2023-04-07T10:15:50;100190.55;;;13.67;65.67
3748;BME280;1889;50.058;8.688;2023-04-07T10:18:20;100190.14;;;13.66;66.05
3748;BME280;1889;50.058;8.688;2023-04-07T10:20:51;100200.41;;;13.77;66.16
3748;BME280;1889;50.058;8.688;2023-04-07T10:26:11;100201.12;;;13.52;67.36
3748;BME280;1889;50.058;8.688;2023-04-07T10:28:44;100199.61;;;13.44;67.81
3748;BME280;1889;50.058;8.688;2023-04-07T10:31:14;100207.09;;;13.59;67.40
3748;BME280;1889;50.058;8.688;2023-04-07T10:33:47;100204.03;;;13.58;67.59
3748;BME280;1889;50.058;8.688;2023-04-07T10:36:17;100203.35;;;13.51;68.08
3748;BME280;1889;50.058;8.688;2023-04-07T10:41:40;100209.80;;;13.41;68.59
3748;BME280;1889;50.058;8.688;2023-04-07T10:47:02;100207.08;;;13.44;68.26
3748;BME280;1889;50.058;8.688;2023-04-07T10:49:33;100213.69;;;13.44;68.72
3748;BME280;1889;50.058;8.688;2023-04-07T10:54:44;100217.53;;;13.32;69.03
3748;BME280;1889;50.058;8.688;2023-04-07T10:57:14;100225.45;;;13.49;68.77
3748;BME280;1889;50.058;8.688;2023-04-07T11:02:39;100224.70;;;13.60;68.79
3748;BME280;1889;50.058;8.688;2023-04-07T11:05:18;100227.41;;;13.26;70.10
3748;BME280;1889;50.058;8.688;2023-04-07T11:07:48;100222.08;;;13.44;69.43
3748;BME280;1889;50.058;8.688;2023-04-07T11:10:18;100226.30;;;13.80;68.24
3748;BME280;1889;50.058;8.688;2023-04-07T11:13:02;100223.65;;;13.34;69.61
3748;BME280;1889;50.058;8.688;2023-04-07T11:15:33;100224.06;;;13.66;68.90
3748;BME280;1889;50.058;8.688;2023-04-07T11:18:07;100225.20;;;13.87;68.01
3748;BME280;1889;50.058;8.688;2023-04-07T11:20:51;100217.41;;;13.97;68.08
3748;BME280;1889;50.058;8.688;2023-04-07T11:23:22;100220.66;;;14.07;67.48
3748;BME280;1889;50.058;8.688;2023-04-07T11:25:58;100218.78;;;13.81;67.33
3748;BME280;1889;50.058;8.688;2023-04-07T11:28:24;100223.39;;;13.89;67.89
3748;BME280;1889;50.058;8.688;2023-04-07T11:30:54;100222.17;;;14.01;67.63
3748;BME280;1889;50.058;8.688;2023-04-07T11:33:26;100223.80;;;14.05;67.30
3748;BME280;1889;50.058;8.688;2023-04-07T11:36:00;100232.14;;;13.62;68.65
3748;BME280;1889;50.058;8.688;2023-04-07T11:38:40;100226.13;;;13.24;70.40
3748;BME280;1889;50.058;8.688;2023-04-07T11:41:12;100230.84;;;13.46;70.04
3748;BME280;1889;50.058;8.688;2023-04-07T11:43:42;100231.51;;;13.68;69.49
3748;BME280;1889;50.058;8.688;2023-04-07T11:46:14;100231.78;;;13.43;70.55
3748;BME280;1889;50.058;8.688;2023-04-07T11:48:44;100239.71;;;13.09;72.03
3748;BME280;1889;50.058;8.688;2023-04-07T11:51:19;100241.55;;;12.54;74.79
3748;BME280;1889;50.058;8.688;2023-04-07T11:53:55;100246.16;;;12.25;76.42
3748;BME280;1889;50.058;8.688;2023-04-07T11:56:26;100241.78;;;12.63;75.43
3748;BME280;1889;50.058;8.688;2023-04-07T11:58:57;100243.91;;;13.00;73.89
3748;BME280;1889;50.058;8.688;2023-04-07T12:01:40;100252.45;;;12.93;74.42
3748;BME280;1889;50.058;8.688;2023-04-07T12:04:13;100247.61;;;13.28;73.50
3748;BME280;1889;50.058;8.688;2023-04-07T12:06:45;100259.19;;;13.23;72.45
3748;BME280;1889;50.058;8.688;2023-04-07T12:09:32;100248.27;;;13.36;72.23
3748;BME280;1889;50.058;8.688;2023-04-07T12:12:05;100248.27;;;13.36;72.23
3748;BME280;1889;50.058;8.688;2023-04-07T12:14:35;100245.98;;;13.39;71.46
3748;BME280;1889;50.058;8.688;2023-04-07T12:17:05;100255.95;;;13.62;71.03
3748;BME280;1889;50.058;8.688;2023-04-07T12:19:35;100257.73;;;13.29;71.40
3748;BME280;1889;50.058;8.688;2023-04-07T12:22:06;100257.73;;;13.29;71.40
3748;BME280;1889;50.058;8.688;2023-04-07T12:24:35;100258.60;;;13.29;71.46
3748;BME280;1889;50.058;8.688;2023-04-07T12:27:05;100256.08;;;13.72;70.75
3748;BME280;1889;50.058;8.688;2023-04-07T12:29:34;100263.42;;;13.93;69.46
3748;BME280;1889;50.058;8.688;2023-04-07T12:32:04;100263.42;;;13.93;69.46
3748;BME280;1889;50.058;8.688;2023-04-07T12:34:33;100268.59;;;12.99;72.03
3748;BME280;1889;50.058;8.688;2023-04-07T12:37:04;100269.77;;;12.50;74.56
3748;BME280;1889;50.058;8.688;2023-04-07T12:39:34;100271.19;;;12.47;75.24
3748;BME280;1889;50.058;8.688;2023-04-07T12:42:03;100271.73;;;13.15;73.69
3748;BME280;1889;50.058;8.688;2023-04-07T12:44:33;100267.34;;;13.31;73.33
3748;BME280;1889;50.058;8.688;2023-04-07T12:47:02;100265.20;;;13.62;72.26
3748;BME280;1889;50.058;8.688;2023-04-07T12:49:32;100267.53;;;13.87;71.04
3748;BME280;1889;50.058;8.688;2023-04-07T12:52:01;100266.29;;;14.00;70.38
3748;BME280;1889;50.058;8.688;2023-04-07T12:54:31;100264.81;;;14.05;70.33
3748;BME280;1889;50.058;8.688;2023-04-07T12:57:00;100270.15;;;14.03;69.93
3748;BME280;1889;50.058;8.688;2023-04-07T12:59:29;100275.70;;;13.80;70.14
3748;BME280;1889;50.058;8.688;2023-04-07T13:01:59;100275.86;;;14.04;69.75
3748;BME280;1889;50.058;8.688;2023-04-07T13:04:28;100270.50;;;14.35;68.33
3748;BME280;1889;50.058;8.688;2023-04-07T13:06:58;100270.50;;;14.35;68.33
3748;BME280;1889;50.058;8.688;2023-04-07T13:09:29;100275.55;;;14.44;68.19
3748;BME280;1889;50.058;8.688;2023-04-07T13:11:58;100268.14;;;14.56;67.37
3748;BME280;1889;50.058;8.688;2023-04-07T13:14:27;100272.03;;;14.14;67.72
3748;BME280;1889;50.058;8.688;2023-04-07T13:16:57;100272.03;;;14.14;67.72
3748;BME280;1889;50.058;8.688;2023-04-07T13:19:26;100275.00;;;14.33;68.49
3748;BME280;1889;50.058;8.688;2023-04-07T13:21:55;100277.70;;;14.46;67.33
3748;BME280;1889;50.058;8.688;2023-04-07T13:24:25;100281.33;;;14.28;68.12
3748;BME280;1889;50.058;8.688;2023-04-07T13:26:54;100270.22;;;14.02;68.49
3748;BME280;1889;50.058;8.688;2023-04-07T13:29:24;100277.56;;;13.61;69.27
3748;BME280;1889;50.058;8.688;2023-04-07T13:32:09;100278.20;;;14.15;68.89
3748;BME280;1889;50.058;8.688;2023-04-07T13:34:35;100276.42;;;14.45;67.36
3748;BME280;1889;50.058;8.688;2023-04-07T13:37:05;100273.98;;;14.52;67.03
3748;BME280;1889;50.058;8.688;2023-04-07T13:39:34;100276.66;;;14.36;67.19
3748;BME280;1889;50.058;8.688;2023-04-07T13:42:04;100274.65;;;14.73;66.41
3748;BME280;1889;50.058;8.688;2023-04-07T13:44:34;100275.60;;;14.84;66.40
3748;BME280;1889;50.058;8.688;2023-04-07T13:47:04;100273.69;;;14.48;66.11
3748;BME280;1889;50.058;8.688;2023-04-07T13:49:33;100273.46;;;14.26;67.17